sensor_id;sensor_type;location;lat;lon;timestamp;temperature;humidity
12887;DHT22;6511;49.746;6.094;2022-12-01T00:00:54;5.80;99.90
12887;DHT22;6511;49.746;6.094;2022-12-01T00:03:20;5.80;99.90
12887;DHT22;6511;49.746;6.094;2022-12-01T00:05:45;5.70;99.90
12887;DHT22;6511;49.746;6.094;2022-12-01T00:08:11;5.70;99.90
12887;DHT22;6511;49.746;6.094;2022-12-01T00:10:36;5.70;99.90
12887;DHT22;6511;49.746;6.094;2022-12-01T00:13:03;5.70;99.90
12887;DHT22;6511;49.746;6.094;2022-12-01T00:15:33;5.70;99.90
12887;DHT22;6511;49.746;6.094;2022-12-01T00:17:59;5.70;99.90
12887;DHT22;6511;49.746;6.094;2022-12-01T00:20:25;5.60;99.90
12887;DHT22;6511;49.746;6.094;2022-12-01T00:22:50;5.70;99.90
12887;DHT22;6511;49.746;6.094;2022-12-01T00:25:16;5.60;99.90
12887;DHT22;6511;49.746;6.094;2022-12-01T00:27:42;5.70;99.90
12887;DHT22;6511;49.746;6.094;2022-12-01T00:30:09;5.70;99.90
12887;DHT22;6511;49.746;6.094;2022-12-01T00:32:35;5.70;99.90
12887;DHT22;6511;49.746;6.094;2022-12-01T00:35:00;5.70;99.90
12887;DHT22;6511;49.746;6.094;2022-12-01T00:37:28;5.80;99.90
12887;DHT22;6511;49.746;6.094;2022-12-01T00:39:53;5.80;99.90
12887;DHT22;6511;49.746;6.094;2022-12-01T00:42:19;5.90;99.90
12887;DHT22;6511;49.746;6.094;2022-12-01T00:44:45;5.90;99.90
12887;DHT22;6511;49.746;6.094;2022-12-01T00:47:11;5.80;99.90
12887;DHT22;6511;49.746;6.094;2022-12-01T00:49:36;5.80;99.90
12887;DHT22;6511;49.746;6.094;2022-12-01T00:52:02;5.80;99.90
12887;DHT22;6511;49.746;6.094;2022-12-01T00:54:27;5.80;99.90
12887;DHT22;6511;49.746;6.094;2022-12-01T00:56:56;5.70;99.90
12887;DHT22;6511;49.746;6.094;2022-12-01T00:59:22;5.70;99.90
12887;DHT22;6511;49.746;6.094;2022-12-01T01:01:48;5.80;99.90
12887;DHT22;6511;49.746;6.094;2022-12-01T01:04:13;5.80;99.90
12887;DHT22;6511;49.746;6.094;2022-12-01T01:06:39;5.90;99.90
12887;DHT22;6511;49.746;6.094;2022-12-01T01:09:07;6.00;99.90
12887;DHT22;6511;49.746;6.094;2022-12-01T01:11:33;6.00;99.90
12887;DHT22;6511;49.746;6.094;2022-12-01T01:13:58;6.00;99.90
12887;DHT22;6511;49.746;6.094;2022-12-01T01:16:24;6.00;99.90
12887;DHT22;6511;49.746;6.094;2022-12-01T01:18:51;6.00;99.90
12887;DHT22;6511;49.746;6.094;2022-12-01T01:21:17;5.90;99.90
12887;DHT22;6511;49.746;6.094;2022-12-01T01:23:43;5.90;99.90
12887;DHT22;6511;49.746;6.094;2022-12-01T01:26:13;5.80;99.90
12887;DHT22;6511;49.746;6.094;2022-12-01T01:28:38;5.80;99.90
12887;DHT22;6511;49.746;6.094;2022-12-01T01:31:06;5.70;99.90
12887;DHT22;6511;49.746;6.094;2022-12-01T01:33:32;5.70;99.90
12887;DHT22;6511;49.746;6.094;2022-12-01T01:35:58;5.70;99.90
12887;DHT22;6511;49.746;6.094;2022-12-01T01:38:24;5.60;99.90
12887;DHT22;6511;49.746;6.094;2022-12-01T01:40:49;5.60;99.90
12887;DHT22;6511;49.746;6.094;2022-12-01T01:43:16;5.60;99.90
12887;DHT22;6511;49.746;6.094;2022-12-01T01:45:42;5.70;99.90
12887;DHT22;6511;49.746;6.094;2022-12-01T01:48:07;5.70;99.90
12887;DHT22;6511;49.746;6.094;2022-12-01T01:50:34;5.80;99.90
12887;DHT22;6511;49.746;6.094;2022-12-01T01:53:09;5.90;99.90
12887;DHT22;6511;49.746;6.094;2022-12-01T01:55:36;5.80;99.90
12887;DHT22;6511;49.746;6.094;2022-12-01T01:58:03;5.90;99.90
12887;DHT22;6511;49.746;6.094;2022-12-01T02:00:29;5.90;99.90
12887;DHT22;6511;49.746;6.094;2022-12-01T02:02:55;5.90;99.90
12887;DHT22;6511;49.746;6.094;2022-12-01T02:05:22;5.90;99.90
12887;DHT22;6511;49.746;6.094;2022-12-01T02:07:49;5.90;99.90
12887;DHT22;6511;49.746;6.094;2022-12-01T02:10:15;5.90;99.90
12887;DHT22;6511;49.746;6.094;2022-12-01T02:12:55;6.00;99.90
12887;DHT22;6511;49.746;6.094;2022-12-01T02:18:21;5.80;99.90
12887;DHT22;6511;49.746;6.094;2022-12-01T02:20:58;5.70;99.90
12887;DHT22;6511;49.746;6.094;2022-12-01T02:23:38;5.70;99.90
12887;DHT22;6511;49.746;6.094;2022-12-01T02:31:08;5.70;99.90
12887;DHT22;6511;49.746;6.094;2022-12-01T02:33:39;5.70;99.90
12887;DHT22;6511;49.746;6.094;2022-12-01T02:38:44;5.70;99.90
12887;DHT22;6511;49.746;6.094;2022-12-01T02:41:23;5.80;99.90
12887;DHT22;6511;49.746;6.094;2022-12-01T02:46:26;5.80;99.90
12887;DHT22;6511;49.746;6.094;2022-12-01T02:48:53;5.80;99.90
12887;DHT22;6511;49.746;6.094;2022-12-01T02:51:21;5.80;99.90
12887;DHT22;6511;49.746;6.094;2022-12-01T02:53:49;5.80;99.90
12887;DHT22;6511;49.746;6.094;2022-12-01T02:56:14;5.80;99.90
12887;DHT22;6511;49.746;6.094;2022-12-01T02:58:44;5.80;99.90
12887;DHT22;6511;49.746;6.094;2022-12-01T03:01:23;5.80;99.90
12887;DHT22;6511;49.746;6.094;2022-12-01T03:03:54;5.80;99.90
12887;DHT22;6511;49.746;6.094;2022-12-01T03:11:47;5.80;99.90
12887;DHT22;6511;49.746;6.094;2022-12-01T03:14:58;5.90;99.90
12887;DHT22;6511;49.746;6.094;2022-12-01T03:17:03;5.90;99.90
12887;DHT22;6511;49.746;6.094;2022-12-01T03:19:34;5.90;99.90
12887;DHT22;6511;49.746;6.094;2022-12-01T03:22:07;5.90;99.90
12887;DHT22;6511;49.746;6.094;2022-12-01T03:24:34;5.90;99.90
12887;DHT22;6511;49.746;6.094;2022-12-01T03:27:01;5.90;99.90
12887;DHT22;6511;49.746;6.094;2022-12-01T03:29:37;5.80;99.90
12887;DHT22;6511;49.746;6.094;2022-12-01T03:32:10;5.80;99.90
12887;DHT22;6511;49.746;6.094;2022-12-01T03:34:47;5.90;99.90
12887;DHT22;6511;49.746;6.094;2022-12-01T03:37:25;5.90;99.90
12887;DHT22;6511;49.746;6.094;2022-12-01T03:39:52;5.90;99.90
12887;DHT22;6511;49.746;6.094;2022-12-01T03:44:56;5.80;99.90
12887;DHT22;6511;49.746;6.094;2022-12-01T03:47:25;5.80;99.90
12887;DHT22;6511;49.746;6.094;2022-12-01T03:49:53;5.80;99.90
12887;DHT22;6511;49.746;6.094;2022-12-01T03:55:18;5.80;99.90
12887;DHT22;6511;49.746;6.094;2022-12-01T04:00:16;5.80;99.90
12887;DHT22;6511;49.746;6.094;2022-12-01T04:02:43;5.80;99.90
12887;DHT22;6511;49.746;6.094;2022-12-01T04:05:09;5.80;99.90
12887;DHT22;6511;49.746;6.094;2022-12-01T04:07:35;5.80;99.90
12887;DHT22;6511;49.746;6.094;2022-12-01T04:10:01;5.80;99.90
12887;DHT22;6511;49.746;6.094;2022-12-01T04:12:26;5.70;99.90
12887;DHT22;6511;49.746;6.094;2022-12-01T04:14:59;5.80;99.90
12887;DHT22;6511;49.746;6.094;2022-12-01T04:17:25;5.80;99.90
12887;DHT22;6511;49.746;6.094;2022-12-01T04:19:50;5.70;99.90
12887;DHT22;6511;49.746;6.094;2022-12-01T04:22:16;5.70;99.90
12887;DHT22;6511;49.746;6.094;2022-12-01T04:24:41;5.70;99.90
12887;DHT22;6511;49.746;6.094;2022-12-01T04:27:07;5.70;99.90
12887;DHT22;6511;49.746;6.094;2022-12-01T04:29:32;5.70;99.90
12887;DHT22;6511;49.746;6.094;2022-12-01T04:31:58;5.80;99.90
12887;DHT22;6511;49.746;6.094;2022-12-01T04:34:23;5.80;99.90
12887;DHT22;6511;49.746;6.094;2022-12-01T04:36:49;5.70;99.90
12887;DHT22;6511;49.746;6.094;2022-12-01T04:39:14;5.70;99.90
12887;DHT22;6511;49.746;6.094;2022-12-01T04:41:40;5.80;99.90
12887;DHT22;6511;49.746;6.094;2022-12-01T04:44:05;5.80;99.90
12887;DHT22;6511;49.746;6.094;2022-12-01T04:46:31;5.80;99.90
12887;DHT22;6511;49.746;6.094;2022-12-01T04:48:56;5.90;99.90
12887;DHT22;6511;49.746;6.094;2022-12-01T04:51:21;5.90;99.90
12887;DHT22;6511;49.746;6.094;2022-12-01T04:53:48;5.90;99.90
12887;DHT22;6511;49.746;6.094;2022-12-01T04:56:13;5.90;99.90
12887;DHT22;6511;49.746;6.094;2022-12-01T04:58:39;5.80;99.90
12887;DHT22;6511;49.746;6.094;2022-12-01T05:01:05;5.80;99.90
12887;DHT22;6511;49.746;6.094;2022-12-01T05:03:31;5.80;99.90
12887;DHT22;6511;49.746;6.094;2022-12-01T05:06:00;5.90;99.90
12887;DHT22;6511;49.746;6.094;2022-12-01T05:08:26;5.80;99.90
12887;DHT22;6511;49.746;6.094;2022-12-01T05:10:54;5.90;99.90
12887;DHT22;6511;49.746;6.094;2022-12-01T05:13:19;5.90;99.90
12887;DHT22;6511;49.746;6.094;2022-12-01T05:15:45;5.90;99.90
12887;DHT22;6511;49.746;6.094;2022-12-01T05:18:10;5.90;99.90
12887;DHT22;6511;49.746;6.094;2022-12-01T05:20:36;5.90;99.90
12887;DHT22;6511;49.746;6.094;2022-12-01T05:23:20;5.90;99.90
12887;DHT22;6511;49.746;6.094;2022-12-01T05:25:45;5.90;99.90
12887;DHT22;6511;49.746;6.094;2022-12-01T05:28:11;5.90;99.90
12887;DHT22;6511;49.746;6.094;2022-12-01T05:30:36;5.90;99.90
12887;DHT22;6511;49.746;6.094;2022-12-01T05:33:02;6.00;99.90
12887;DHT22;6511;49.746;6.094;2022-12-01T05:35:27;6.00;99.90
12887;DHT22;6511;49.746;6.094;2022-12-01T05:37:53;6.00;99.90
12887;DHT22;6511;49.746;6.094;2022-12-01T05:40:18;6.00;99.90
12887;DHT22;6511;49.746;6.094;2022-12-01T05:42:44;5.90;99.90
12887;DHT22;6511;49.746;6.094;2022-12-01T05:45:09;5.90;99.90
12887;DHT22;6511;49.746;6.094;2022-12-01T05:47:35;5.90;99.90
12887;DHT22;6511;49.746;6.094;2022-12-01T05:50:00;5.90;99.90
12887;DHT22;6511;49.746;6.094;2022-12-01T05:52:26;5.90;99.90
12887;DHT22;6511;49.746;6.094;2022-12-01T05:54:51;5.90;99.90
12887;DHT22;6511;49.746;6.094;2022-12-01T05:57:17;5.90;99.90
12887;DHT22;6511;49.746;6.094;2022-12-01T05:59:42;5.90;99.90
12887;DHT22;6511;49.746;6.094;2022-12-01T06:02:08;5.90;99.90
12887;DHT22;6511;49.746;6.094;2022-12-01T06:04:33;5.90;99.90
12887;DHT22;6511;49.746;6.094;2022-12-01T06:06:58;5.90;99.90
12887;DHT22;6511;49.746;6.094;2022-12-01T06:09:24;5.90;99.90
12887;DHT22;6511;49.746;6.094;2022-12-01T06:11:49;5.90;99.90
12887;DHT22;6511;49.746;6.094;2022-12-01T06:14:15;5.80;99.90
12887;DHT22;6511;49.746;6.094;2022-12-01T06:16:40;5.80;99.90
12887;DHT22;6511;49.746;6.094;2022-12-01T06:19:06;5.80;99.90
12887;DHT22;6511;49.746;6.094;2022-12-01T06:21:31;5.80;99.90
12887;DHT22;6511;49.746;6.094;2022-12-01T06:23:57;5.80;99.90
12887;DHT22;6511;49.746;6.094;2022-12-01T06:26:22;5.80;99.90
12887;DHT22;6511;49.746;6.094;2022-12-01T06:28:47;5.80;99.90
12887;DHT22;6511;49.746;6.094;2022-12-01T06:31:13;5.80;99.90
12887;DHT22;6511;49.746;6.094;2022-12-01T06:33:38;5.80;99.90
12887;DHT22;6511;49.746;6.094;2022-12-01T06:36:05;5.90;99.90
12887;DHT22;6511;49.746;6.094;2022-12-01T06:38:32;5.70;99.90
12887;DHT22;6511;49.746;6.094;2022-12-01T06:40:57;5.70;99.90
12887;DHT22;6511;49.746;6.094;2022-12-01T06:43:23;5.70;99.90
12887;DHT22;6511;49.746;6.094;2022-12-01T06:45:49;5.80;99.90
12887;DHT22;6511;49.746;6.094;2022-12-01T06:48:14;5.70;99.90
12887;DHT22;6511;49.746;6.094;2022-12-01T06:50:39;5.70;99.90
12887;DHT22;6511;49.746;6.094;2022-12-01T06:53:05;5.70;99.90
12887;DHT22;6511;49.746;6.094;2022-12-01T06:55:31;5.70;99.90
12887;DHT22;6511;49.746;6.094;2022-12-01T06:57:59;5.70;99.90
12887;DHT22;6511;49.746;6.094;2022-12-01T07:00:25;5.70;99.90
12887;DHT22;6511;49.746;6.094;2022-12-01T07:02:50;5.70;99.90
12887;DHT22;6511;49.746;6.094;2022-12-01T07:05:16;5.70;99.90
12887;DHT22;6511;49.746;6.094;2022-12-01T07:07:41;5.70;99.90
12887;DHT22;6511;49.746;6.094;2022-12-01T07:10:07;5.70;99.90
12887;DHT22;6511;49.746;6.094;2022-12-01T07:12:33;5.70;99.90
12887;DHT22;6511;49.746;6.094;2022-12-01T07:14:58;5.70;99.90
12887;DHT22;6511;49.746;6.094;2022-12-01T07:17:24;5.70;99.90
12887;DHT22;6511;49.746;6.094;2022-12-01T07:19:50;5.70;99.90
12887;DHT22;6511;49.746;6.094;2022-12-01T07:22:15;5.70;99.90
12887;DHT22;6511;49.746;6.094;2022-12-01T07:24:41;5.70;99.90
12887;DHT22;6511;49.746;6.094;2022-12-01T07:27:06;5.60;99.90
12887;DHT22;6511;49.746;6.094;2022-12-01T07:29:31;5.70;99.90
12887;DHT22;6511;49.746;6.094;2022-12-01T07:31:57;5.70;99.90
12887;DHT22;6511;49.746;6.094;2022-12-01T07:34:22;5.70;99.90
12887;DHT22;6511;49.746;6.094;2022-12-01T07:36:48;5.70;99.90
12887;DHT22;6511;49.746;6.094;2022-12-01T07:39:13;5.70;99.90
12887;DHT22;6511;49.746;6.094;2022-12-01T07:41:39;5.70;99.90
12887;DHT22;6511;49.746;6.094;2022-12-01T07:44:04;5.80;99.90
12887;DHT22;6511;49.746;6.094;2022-12-01T07:46:30;5.80;99.90
12887;DHT22;6511;49.746;6.094;2022-12-01T07:48:55;5.80;99.90
12887;DHT22;6511;49.746;6.094;2022-12-01T07:51:22;5.80;99.90
12887;DHT22;6511;49.746;6.094;2022-12-01T07:53:48;5.80;99.90
12887;DHT22;6511;49.746;6.094;2022-12-01T07:56:14;5.80;99.90
12887;DHT22;6511;49.746;6.094;2022-12-01T07:58:39;5.80;99.90
12887;DHT22;6511;49.746;6.094;2022-12-01T08:01:09;5.90;99.90
12887;DHT22;6511;49.746;6.094;2022-12-01T08:03:36;5.90;99.90
12887;DHT22;6511;49.746;6.094;2022-12-01T08:06:02;5.90;99.90
12887;DHT22;6511;49.746;6.094;2022-12-01T08:08:28;6.00;99.90
12887;DHT22;6511;49.746;6.094;2022-12-01T08:10:57;6.00;99.90
12887;DHT22;6511;49.746;6.094;2022-12-01T08:13:23;6.00;99.90
12887;DHT22;6511;49.746;6.094;2022-12-01T08:15:49;6.00;99.90
12887;DHT22;6511;49.746;6.094;2022-12-01T08:18:14;6.10;99.90
12887;DHT22;6511;49.746;6.094;2022-12-01T08:20:40;6.20;99.90
12887;DHT22;6511;49.746;6.094;2022-12-01T08:23:05;6.20;99.90
12887;DHT22;6511;49.746;6.094;2022-12-01T08:25:32;6.20;99.90
12887;DHT22;6511;49.746;6.094;2022-12-01T08:27:58;6.20;99.90
12887;DHT22;6511;49.746;6.094;2022-12-01T08:30:24;6.20;99.90
12887;DHT22;6511;49.746;6.094;2022-12-01T08:32:52;6.20;99.90
12887;DHT22;6511;49.746;6.094;2022-12-01T08:35:18;6.20;99.90
12887;DHT22;6511;49.746;6.094;2022-12-01T08:37:43;6.20;99.90
12887;DHT22;6511;49.746;6.094;2022-12-01T08:40:09;6.10;99.90
12887;DHT22;6511;49.746;6.094;2022-12-01T08:42:34;6.10;99.90
12887;DHT22;6511;49.746;6.094;2022-12-01T08:45:00;6.10;99.90
12887;DHT22;6511;49.746;6.094;2022-12-01T08:47:26;6.10;99.90
12887;DHT22;6511;49.746;6.094;2022-12-01T08:49:53;6.20;99.90
12887;DHT22;6511;49.746;6.094;2022-12-01T08:52:18;6.20;99.90
12887;DHT22;6511;49.746;6.094;2022-12-01T08:54:44;6.10;99.90
12887;DHT22;6511;49.746;6.094;2022-12-01T08:57:10;6.10;99.90
12887;DHT22;6511;49.746;6.094;2022-12-01T08:59:35;6.10;99.90
12887;DHT22;6511;49.746;6.094;2022-12-01T09:02:01;6.20;99.90
12887;DHT22;6511;49.746;6.094;2022-12-01T09:04:26;6.20;99.90
12887;DHT22;6511;49.746;6.094;2022-12-01T09:06:53;6.20;99.90
12887;DHT22;6511;49.746;6.094;2022-12-01T09:09:23;6.20;99.90
12887;DHT22;6511;49.746;6.094;2022-12-01T09:11:49;6.20;99.90
12887;DHT22;6511;49.746;6.094;2022-12-01T09:14:16;6.20;99.90
12887;DHT22;6511;49.746;6.094;2022-12-01T09:16:43;6.20;99.90
12887;DHT22;6511;49.746;6.094;2022-12-01T09:19:08;6.20;99.90
12887;DHT22;6511;49.746;6.094;2022-12-01T09:21:35;6.30;99.90
12887;DHT22;6511;49.746;6.094;2022-12-01T09:24:04;6.30;99.90
12887;DHT22;6511;49.746;6.094;2022-12-01T09:26:30;6.30;99.90
12887;DHT22;6511;49.746;6.094;2022-12-01T09:28:57;6.30;99.90
12887;DHT22;6511;49.746;6.094;2022-12-01T09:31:23;6.30;99.90
12887;DHT22;6511;49.746;6.094;2022-12-01T09:33:59;6.30;99.90
12887;DHT22;6511;49.746;6.094;2022-12-01T09:36:25;6.40;99.90
12887;DHT22;6511;49.746;6.094;2022-12-01T09:38:51;6.40;99.90
12887;DHT22;6511;49.746;6.094;2022-12-01T09:41:36;6.40;99.90
12887;DHT22;6511;49.746;6.094;2022-12-01T09:46:48;6.50;99.90
12887;DHT22;6511;49.746;6.094;2022-12-01T09:49:16;6.60;99.90
12887;DHT22;6511;49.746;6.094;2022-12-01T09:51:43;6.50;99.90
12887;DHT22;6511;49.746;6.094;2022-12-01T09:54:10;6.50;99.90
12887;DHT22;6511;49.746;6.094;2022-12-01T09:56:46;6.60;99.90
12887;DHT22;6511;49.746;6.094;2022-12-01T09:59:16;6.60;99.90
12887;DHT22;6511;49.746;6.094;2022-12-01T10:01:43;6.60;99.90
12887;DHT22;6511;49.746;6.094;2022-12-01T10:04:14;6.60;99.90
12887;DHT22;6511;49.746;6.094;2022-12-01T10:06:43;6.60;99.90
12887;DHT22;6511;49.746;6.094;2022-12-01T10:11:39;6.60;99.90
12887;DHT22;6511;49.746;6.094;2022-12-01T10:14:08;6.70;99.90
12887;DHT22;6511;49.746;6.094;2022-12-01T10:16:38;6.70;99.90
12887;DHT22;6511;49.746;6.094;2022-12-01T10:19:11;6.70;99.90
12887;DHT22;6511;49.746;6.094;2022-12-01T10:24:27;6.70;99.90
12887;DHT22;6511;49.746;6.094;2022-12-01T10:32:17;6.70;99.90
12887;DHT22;6511;49.746;6.094;2022-12-01T10:34:43;6.80;99.90
12887;DHT22;6511;49.746;6.094;2022-12-01T10:37:17;6.80;99.90
12887;DHT22;6511;49.746;6.094;2022-12-01T10:39:45;6.80;99.90
12887;DHT22;6511;49.746;6.094;2022-12-01T10:42:12;6.80;99.90
12887;DHT22;6511;49.746;6.094;2022-12-01T10:44:39;6.90;99.90
12887;DHT22;6511;49.746;6.094;2022-12-01T10:47:09;6.80;99.90
12887;DHT22;6511;49.746;6.094;2022-12-01T10:49:38;6.80;99.90
12887;DHT22;6511;49.746;6.094;2022-12-01T10:52:04;6.80;99.90
12887;DHT22;6511;49.746;6.094;2022-12-01T10:54:39;6.80;99.90
12887;DHT22;6511;49.746;6.094;2022-12-01T10:57:05;6.90;99.90
12887;DHT22;6511;49.746;6.094;2022-12-01T10:59:36;6.90;99.90
12887;DHT22;6511;49.746;6.094;2022-12-01T11:02:04;6.80;99.90
12887;DHT22;6511;49.746;6.094;2022-12-01T11:04:32;6.80;99.90
12887;DHT22;6511;49.746;6.094;2022-12-01T11:06:59;6.80;99.90
12887;DHT22;6511;49.746;6.094;2022-12-01T11:09:26;6.80;99.90
12887;DHT22;6511;49.746;6.094;2022-12-01T11:11:53;6.80;99.90
12887;DHT22;6511;49.746;6.094;2022-12-01T11:14:20;6.80;99.90
12887;DHT22;6511;49.746;6.094;2022-12-01T11:16:47;6.80;99.90
12887;DHT22;6511;49.746;6.094;2022-12-01T11:21:45;6.80;99.90
12887;DHT22;6511;49.746;6.094;2022-12-01T11:24:24;6.80;99.90
12887;DHT22;6511;49.746;6.094;2022-12-01T11:26:50;6.80;99.90
12887;DHT22;6511;49.746;6.094;2022-12-01T11:29:30;6.80;99.90
12887;DHT22;6511;49.746;6.094;2022-12-01T11:31:56;6.70;99.90
12887;DHT22;6511;49.746;6.094;2022-12-01T11:34:23;6.80;99.90
12887;DHT22;6511;49.746;6.094;2022-12-01T11:37:14;6.80;99.90
12887;DHT22;6511;49.746;6.094;2022-12-01T11:39:36;6.90;99.90
12887;DHT22;6511;49.746;6.094;2022-12-01T11:42:03;6.90;99.90
12887;DHT22;6511;49.746;6.094;2022-12-01T11:44:30;6.90;99.90
12887;DHT22;6511;49.746;6.094;2022-12-01T11:46:56;6.90;99.90
12887;DHT22;6511;49.746;6.094;2022-12-01T11:49:23;6.90;99.90
12887;DHT22;6511;49.746;6.094;2022-12-01T11:51:49;6.90;99.90
12887;DHT22;6511;49.746;6.094;2022-12-01T11:56:41;6.90;99.90
12887;DHT22;6511;49.746;6.094;2022-12-01T11:59:22;6.90;99.90
12887;DHT22;6511;49.746;6.094;2022-12-01T12:02:04;6.80;99.90
12887;DHT22;6511;49.746;6.094;2022-12-01T12:07:14;6.90;99.90
12887;DHT22;6511;49.746;6.094;2022-12-01T12:12:23;6.80;99.90
12887;DHT22;6511;49.746;6.094;2022-12-01T12:14:54;6.90;99.90
12887;DHT22;6511;49.746;6.094;2022-12-01T12:19:57;7.00;99.90
12887;DHT22;6511;49.746;6.094;2022-12-01T12:25:44;6.90;99.90
12887;DHT22;6511;49.746;6.094;2022-12-01T12:30:41;6.90;99.90
12887;DHT22;6511;49.746;6.094;2022-12-01T12:36:08;6.90;99.90
12887;DHT22;6511;49.746;6.094;2022-12-01T12:38:41;7.00;99.90
12887;DHT22;6511;49.746;6.094;2022-12-01T12:41:22;7.00;99.90
12887;DHT22;6511;49.746;6.094;2022-12-01T12:44:11;7.00;99.90
12887;DHT22;6511;49.746;6.094;2022-12-01T12:46:53;7.00;99.90
12887;DHT22;6511;49.746;6.094;2022-12-01T12:49:28;7.10;99.90
12887;DHT22;6511;49.746;6.094;2022-12-01T12:52:01;7.00;99.90
12887;DHT22;6511;49.746;6.094;2022-12-01T12:57:33;6.90;99.90
12887;DHT22;6511;49.746;6.094;2022-12-01T12:59:59;6.80;99.90
12887;DHT22;6511;49.746;6.094;2022-12-01T13:15:35;6.90;99.90
12887;DHT22;6511;49.746;6.094;2022-12-01T13:18:02;6.90;99.90
12887;DHT22;6511;49.746;6.094;2022-12-01T13:20:28;6.80;99.90
12887;DHT22;6511;49.746;6.094;2022-12-01T13:22:56;6.80;99.90
12887;DHT22;6511;49.746;6.094;2022-12-01T13:25:24;6.80;99.90
12887;DHT22;6511;49.746;6.094;2022-12-01T13:27:51;6.80;99.90
12887;DHT22;6511;49.746;6.094;2022-12-01T13:30:22;6.80;99.90
12887;DHT22;6511;49.746;6.094;2022-12-01T13:32:48;6.80;99.90
12887;DHT22;6511;49.746;6.094;2022-12-01T13:40:42;6.60;99.90
12887;DHT22;6511;49.746;6.094;2022-12-01T13:43:14;6.60;99.90
12887;DHT22;6511;49.746;6.094;2022-12-01T13:45:41;6.60;99.90
12887;DHT22;6511;49.746;6.094;2022-12-01T13:48:24;6.60;99.90
12887;DHT22;6511;49.746;6.094;2022-12-01T13:51:00;6.50;99.90
12887;DHT22;6511;49.746;6.094;2022-12-01T13:53:36;6.40;99.90
12887;DHT22;6511;49.746;6.094;2022-12-01T14:03:58;6.40;99.90
12887;DHT22;6511;49.746;6.094;2022-12-01T14:09:00;6.60;99.90
12887;DHT22;6511;49.746;6.094;2022-12-01T14:11:29;6.50;99.90
12887;DHT22;6511;49.746;6.094;2022-12-01T14:13:57;6.50;99.90
12887;DHT22;6511;49.746;6.094;2022-12-01T14:16:24;6.50;99.90
12887;DHT22;6511;49.746;6.094;2022-12-01T14:21:15;6.50;99.90
12887;DHT22;6511;49.746;6.094;2022-12-01T14:24:01;6.50;99.90
12887;DHT22;6511;49.746;6.094;2022-12-01T14:26:29;6.50;99.90
12887;DHT22;6511;49.746;6.094;2022-12-01T14:41:24;6.30;99.90
12887;DHT22;6511;49.746;6.094;2022-12-01T14:43:51;6.30;99.90
12887;DHT22;6511;49.746;6.094;2022-12-01T14:46:32;6.30;99.90
12887;DHT22;6511;49.746;6.094;2022-12-01T14:48:59;6.30;99.90
12887;DHT22;6511;49.746;6.094;2022-12-01T14:51:27;6.30;99.90
12887;DHT22;6511;49.746;6.094;2022-12-01T14:53:56;6.30;99.90
12887;DHT22;6511;49.746;6.094;2022-12-01T14:56:22;6.30;99.90
12887;DHT22;6511;49.746;6.094;2022-12-01T14:58:52;6.20;99.90
12887;DHT22;6511;49.746;6.094;2022-12-01T15:01:18;6.30;99.90
12887;DHT22;6511;49.746;6.094;2022-12-01T15:03:48;6.30;99.90
12887;DHT22;6511;49.746;6.094;2022-12-01T15:06:19;6.30;99.90
12887;DHT22;6511;49.746;6.094;2022-12-01T15:08:45;6.20;99.90
12887;DHT22;6511;49.746;6.094;2022-12-01T15:11:21;6.20;99.90
12887;DHT22;6511;49.746;6.094;2022-12-01T15:13:48;6.20;99.90
12887;DHT22;6511;49.746;6.094;2022-12-01T15:16:15;6.20;99.90
12887;DHT22;6511;49.746;6.094;2022-12-01T15:18:41;6.30;99.90
12887;DHT22;6511;49.746;6.094;2022-12-01T15:26:24;6.10;99.90
12887;DHT22;6511;49.746;6.094;2022-12-01T15:29:02;6.00;99.90
12887;DHT22;6511;49.746;6.094;2022-12-01T15:31:27;6.00;99.90
12887;DHT22;6511;49.746;6.094;2022-12-01T15:33:53;6.00;99.90
12887;DHT22;6511;49.746;6.094;2022-12-01T15:36:19;6.00;99.90
12887;DHT22;6511;49.746;6.094;2022-12-01T15:38:45;6.00;99.90
12887;DHT22;6511;49.746;6.094;2022-12-01T15:41:15;6.00;99.90
12887;DHT22;6511;49.746;6.094;2022-12-01T15:43:41;6.00;99.90
12887;DHT22;6511;49.746;6.094;2022-12-01T15:46:13;5.90;99.90
12887;DHT22;6511;49.746;6.094;2022-12-01T15:48:39;5.90;99.90
12887;DHT22;6511;49.746;6.094;2022-12-01T15:53:37;5.80;99.90
12887;DHT22;6511;49.746;6.094;2022-12-01T15:56:04;5.80;99.90
12887;DHT22;6511;49.746;6.094;2022-12-01T15:58:32;5.80;99.90
12887;DHT22;6511;49.746;6.094;2022-12-01T16:00:59;5.80;99.90
12887;DHT22;6511;49.746;6.094;2022-12-01T16:03:24;5.80;99.90
12887;DHT22;6511;49.746;6.094;2022-12-01T16:05:50;5.70;99.90
12887;DHT22;6511;49.746;6.094;2022-12-01T16:08:16;5.70;99.90
12887;DHT22;6511;49.746;6.094;2022-12-01T16:10:42;5.70;99.90
12887;DHT22;6511;49.746;6.094;2022-12-01T16:15:53;5.70;99.90
12887;DHT22;6511;49.746;6.094;2022-12-01T16:18:23;5.60;99.90
12887;DHT22;6511;49.746;6.094;2022-12-01T16:20:50;5.70;99.90
12887;DHT22;6511;49.746;6.094;2022-12-01T16:23:18;5.70;99.90
12887;DHT22;6511;49.746;6.094;2022-12-01T16:25:46;5.60;99.90
12887;DHT22;6511;49.746;6.094;2022-12-01T16:28:22;5.60;99.90
12887;DHT22;6511;49.746;6.094;2022-12-01T16:30:49;5.60;99.90
12887;DHT22;6511;49.746;6.094;2022-12-01T16:33:15;5.60;99.90
12887;DHT22;6511;49.746;6.094;2022-12-01T16:35:41;5.60;99.90
12887;DHT22;6511;49.746;6.094;2022-12-01T16:38:11;5.60;99.90
12887;DHT22;6511;49.746;6.094;2022-12-01T16:40:40;5.60;99.90
12887;DHT22;6511;49.746;6.094;2022-12-01T16:43:09;5.60;99.90
12887;DHT22;6511;49.746;6.094;2022-12-01T16:45:36;5.60;99.90
12887;DHT22;6511;49.746;6.094;2022-12-01T16:48:01;5.50;99.90
12887;DHT22;6511;49.746;6.094;2022-12-01T16:50:27;5.50;99.90
12887;DHT22;6511;49.746;6.094;2022-12-01T16:52:52;5.50;99.90
12887;DHT22;6511;49.746;6.094;2022-12-01T16:55:21;5.40;99.90
12887;DHT22;6511;49.746;6.094;2022-12-01T16:57:48;5.40;99.90
12887;DHT22;6511;49.746;6.094;2022-12-01T17:00:13;5.40;99.90
12887;DHT22;6511;49.746;6.094;2022-12-01T17:02:39;5.50;99.90
12887;DHT22;6511;49.746;6.094;2022-12-01T17:05:04;5.40;99.90
12887;DHT22;6511;49.746;6.094;2022-12-01T17:07:30;5.40;99.90
12887;DHT22;6511;49.746;6.094;2022-12-01T17:09:55;5.40;99.90
12887;DHT22;6511;49.746;6.094;2022-12-01T17:12:20;5.40;99.90
12887;DHT22;6511;49.746;6.094;2022-12-01T17:14:49;5.40;99.90
12887;DHT22;6511;49.746;6.094;2022-12-01T17:17:14;5.40;99.90
12887;DHT22;6511;49.746;6.094;2022-12-01T17:19:40;5.40;99.90
12887;DHT22;6511;49.746;6.094;2022-12-01T17:22:05;5.40;99.90
12887;DHT22;6511;49.746;6.094;2022-12-01T17:24:31;5.30;99.90
12887;DHT22;6511;49.746;6.094;2022-12-01T17:26:56;5.40;99.90
12887;DHT22;6511;49.746;6.094;2022-12-01T17:29:22;5.40;99.90
12887;DHT22;6511;49.746;6.094;2022-12-01T17:31:47;5.30;99.90
12887;DHT22;6511;49.746;6.094;2022-12-01T17:34:13;5.40;99.90
12887;DHT22;6511;49.746;6.094;2022-12-01T17:36:38;5.40;99.90
12887;DHT22;6511;49.746;6.094;2022-12-01T17:39:04;5.40;99.90
12887;DHT22;6511;49.746;6.094;2022-12-01T17:41:29;5.30;99.90
12887;DHT22;6511;49.746;6.094;2022-12-01T17:44:02;5.30;99.90
12887;DHT22;6511;49.746;6.094;2022-12-01T17:46:28;5.30;99.90
12887;DHT22;6511;49.746;6.094;2022-12-01T17:48:54;5.20;99.90
12887;DHT22;6511;49.746;6.094;2022-12-01T17:51:19;5.20;99.90
12887;DHT22;6511;49.746;6.094;2022-12-01T17:53:45;5.20;99.90
12887;DHT22;6511;49.746;6.094;2022-12-01T17:56:11;5.10;99.90
12887;DHT22;6511;49.746;6.094;2022-12-01T17:58:37;5.10;99.90
12887;DHT22;6511;49.746;6.094;2022-12-01T18:01:03;5.10;99.90
12887;DHT22;6511;49.746;6.094;2022-12-01T18:03:29;5.00;99.90